createdAt,value
2023-03-14T00:01:18.827Z,4.85
2023-03-14T00:03:49.081Z,4.83
2023-03-14T00:06:18.192Z,4.81
2023-03-14T00:08:46.714Z,4.78
2023-03-14T00:11:17.981Z,4.76
2023-03-14T00:13:51.151Z,4.77
2023-03-14T00:16:19.572Z,4.79
2023-03-14T00:18:49.742Z,4.81
2023-03-14T00:21:18.484Z,4.81
2023-03-14T00:23:47.136Z,4.79
2023-03-14T00:26:18.268Z,4.77
2023-03-14T00:28:47.262Z,4.74
2023-03-14T00:31:16.758Z,4.73
2023-03-14T00:33:45.560Z,4.70
2023-03-14T00:36:17.791Z,4.71
2023-03-14T00:38:49.223Z,4.71
2023-03-14T00:41:26.499Z,4.74
2023-03-14T00:43:55.355Z,4.75
2023-03-14T00:46:24.310Z,4.76
2023-03-14T00:48:53.813Z,4.75
2023-03-14T00:51:22.593Z,4.72
2023-03-14T00:53:51.845Z,4.68
2023-03-14T00:56:20.942Z,4.65
2023-03-14T00:58:57.307Z,4.62
2023-03-14T01:01:26.044Z,4.63
2023-03-14T01:03:55.619Z,4.64
2023-03-14T01:06:27.990Z,4.64
2023-03-14T01:08:58.689Z,4.64
2023-03-14T01:11:34.321Z,4.61
2023-03-14T01:14:03.216Z,4.58
2023-03-14T01:16:35.413Z,4.56
2023-03-14T01:19:03.981Z,4.53
2023-03-14T01:21:35.024Z,4.54
2023-03-14T01:24:06.671Z,4.58
2023-03-14T01:26:36.339Z,4.63
2023-03-14T01:29:06.348Z,4.64
2023-03-14T01:31:37.630Z,4.62
2023-03-14T01:34:07.608Z,4.60
2023-03-14T01:36:38.266Z,4.58
2023-03-14T01:39:10.046Z,4.54
2023-03-14T01:41:41.514Z,4.47
2023-03-14T01:44:14.358Z,4.41
2023-03-14T01:46:46.805Z,4.38
2023-03-14T01:49:34.537Z,4.37
2023-03-14T01:52:12.886Z,4.36
2023-03-14T01:54:44.226Z,4.29
2023-03-14T01:57:44.287Z,4.22
2023-03-14T02:00:23.283Z,4.13
2023-03-14T02:03:05.972Z,4.11
2023-03-14T02:05:37.170Z,4.08
2023-03-14T02:08:49.686Z,4.06
2023-03-14T02:11:28.408Z,4.02
2023-03-14T02:14:07.634Z,3.95
2023-03-14T02:16:36.918Z,3.90
2023-03-14T02:19:42.875Z,3.87
2023-03-14T02:22:39.224Z,3.88
2023-03-14T02:25:18.533Z,3.89
2023-03-14T02:27:47.224Z,3.82
2023-03-14T02:30:19.359Z,3.77
2023-03-14T02:32:50.076Z,3.71
2023-03-14T02:35:22.390Z,3.66
2023-03-14T02:37:56.973Z,3.62
2023-03-14T02:40:27.918Z,3.63
2023-03-14T02:42:58.545Z,3.66
2023-03-14T02:45:37.536Z,3.71
2023-03-14T02:48:09.263Z,3.69
2023-03-14T02:50:38.622Z,3.67
2023-03-14T02:53:09.897Z,3.63
2023-03-14T02:55:41.037Z,3.59
2023-03-14T02:58:12.781Z,3.54
2023-03-14T03:00:42.347Z,3.49
2023-03-14T03:03:11.517Z,3.47
2023-03-14T03:05:40.275Z,3.45
2023-03-14T03:08:09.408Z,3.44
2023-03-14T03:10:38.418Z,3.38
2023-03-14T03:13:09.601Z,3.31
2023-03-14T03:15:39.230Z,3.26
2023-03-14T03:18:08.482Z,3.18
2023-03-14T03:20:37.481Z,3.13
2023-03-14T03:23:07.699Z,3.12
2023-03-14T03:25:35.992Z,3.10
2023-03-14T03:28:09.292Z,3.06
2023-03-14T03:30:40.870Z,3.00
2023-03-14T03:33:13.251Z,2.93
2023-03-14T03:35:50.221Z,2.86
2023-03-14T03:38:23.665Z,2.81
2023-03-14T03:40:56.206Z,2.79
2023-03-14T03:43:32.577Z,2.78
2023-03-14T03:46:06.416Z,2.76
2023-03-14T03:48:42.952Z,2.72
2023-03-14T03:51:15.650Z,2.67
2023-03-14T03:53:46.774Z,2.62
2023-03-14T03:56:18.231Z,2.61
2023-03-14T03:58:56.024Z,2.61
2023-03-14T04:01:29.998Z,2.59
2023-03-14T04:04:03.276Z,2.53
2023-03-14T04:06:33.269Z,2.48
2023-03-14T04:09:05.001Z,2.43
2023-03-14T04:11:45.263Z,2.40
2023-03-14T04:14:27.775Z,2.40
2023-03-14T04:17:30.932Z,2.40
2023-03-14T04:19:59.150Z,2.36
2023-03-14T04:22:37.726Z,2.31
2023-03-14T04:25:20.281Z,2.27
2023-03-14T04:27:56.033Z,2.27
2023-03-14T04:30:32.266Z,2.30
2023-03-14T04:33:13.696Z,2.30
2023-03-14T04:36:00.607Z,2.28
2023-03-14T04:38:32.700Z,2.26
2023-03-14T04:41:03.304Z,2.25
2023-03-14T04:43:36.723Z,2.28
2023-03-14T04:46:15.646Z,2.30
2023-03-14T04:48:51.611Z,2.33
2023-03-14T04:51:20.614Z,2.36
2023-03-14T04:53:50.951Z,2.39
2023-03-14T04:56:20.418Z,2.43
2023-03-14T04:58:48.903Z,2.49
2023-03-14T05:01:26.167Z,2.53
2023-03-14T05:04:17.225Z,2.58
2023-03-14T05:07:01.954Z,2.62
2023-03-14T05:09:43.841Z,2.66
2023-03-14T05:12:36.653Z,2.73
2023-03-14T05:15:29.250Z,2.87
2023-03-14T05:18:24.195Z,2.96
2023-03-14T05:21:15.096Z,3.04
2023-03-14T05:23:56.440Z,3.10
2023-03-14T05:26:51.277Z,3.21
2023-03-14T05:29:34.101Z,3.29
2023-03-14T05:32:34.486Z,3.37
2023-03-14T05:35:09.972Z,3.49
2023-03-14T05:37:59.664Z,3.60
2023-03-14T05:40:47.764Z,3.68
2023-03-14T05:43:42.614Z,3.74
2023-03-14T05:46:38.784Z,3.80
2023-03-14T05:49:41.070Z,3.81
2023-03-14T05:52:45.763Z,3.80
2023-03-14T05:55:42.097Z,3.81
2023-03-14T05:58:39.669Z,3.83
2023-03-14T06:01:24.227Z,3.89
2023-03-14T06:04:15.907Z,3.94
2023-03-14T06:06:44.690Z,3.99
2023-03-14T06:09:15.396Z,4.01
2023-03-14T06:11:51.800Z,4.01
2023-03-14T06:14:21.012Z,4.05
2023-03-14T06:16:51.990Z,4.07
2023-03-14T06:19:27.123Z,4.10
2023-03-14T06:21:55.969Z,4.10
2023-03-14T06:24:27.725Z,4.11
2023-03-14T06:27:16.073Z,4.19
2023-03-14T06:29:57.057Z,4.25
2023-03-14T06:32:34.983Z,4.31
2023-03-14T06:35:09.683Z,4.32
2023-03-14T06:37:40.620Z,4.32
2023-03-14T06:40:17.356Z,4.34
2023-03-14T06:43:10.350Z,4.33
2023-03-14T06:45:41.334Z,4.33
2023-03-14T06:48:15.745Z,4.34
2023-03-14T06:50:52.614Z,4.35
2023-03-14T06:53:27.783Z,4.40
2023-03-14T06:56:04.156Z,4.47
2023-03-14T06:58:33.764Z,4.60
2023-03-14T07:01:09.124Z,4.75
2023-03-14T07:03:41.835Z,4.93
2023-03-14T07:06:11.957Z,5.11
2023-03-14T07:08:42.079Z,5.29
2023-03-14T07:11:12.205Z,5.49
2023-03-14T07:13:42.422Z,5.70
2023-03-14T07:16:14.282Z,5.93
2023-03-14T07:18:46.172Z,6.10
2023-03-14T07:21:14.966Z,6.23
2023-03-14T07:23:45.738Z,6.36
2023-03-14T07:26:15.609Z,6.53
2023-03-14T07:28:52.796Z,6.70
2023-03-14T07:31:27.068Z,6.90
2023-03-14T07:34:00.114Z,7.04
2023-03-14T07:36:32.061Z,7.14
2023-03-14T07:39:03.933Z,7.28
2023-03-14T07:42:00.053Z,7.47
2023-03-14T07:44:48.498Z,7.59
2023-03-14T07:47:17.799Z,7.75
2023-03-14T07:49:46.287Z,7.89
2023-03-14T07:52:16.412Z,8.03
2023-03-14T07:54:46.236Z,8.16
2023-03-14T07:57:15.566Z,8.29
2023-03-14T07:59:45.174Z,8.48
2023-03-14T08:02:17.591Z,8.68
2023-03-14T08:04:51.254Z,8.85
2023-03-14T08:07:20.963Z,8.94
2023-03-14T08:09:51.397Z,9.00
2023-03-14T08:12:21.311Z,9.04
2023-03-14T08:14:55.012Z,9.14
2023-03-14T08:17:24.210Z,9.28
2023-03-14T08:19:52.896Z,9.40
2023-03-14T08:22:23.534Z,9.61
2023-03-14T08:24:58.152Z,9.86
2023-03-14T08:27:35.822Z,10.08
2023-03-14T08:30:05.577Z,10.31
2023-03-14T08:32:43.044Z,10.44
2023-03-14T08:35:12.256Z,10.56
2023-03-14T08:37:41.578Z,10.62
2023-03-14T08:40:11.476Z,10.67
2023-03-14T08:42:40.656Z,10.72
2023-03-14T08:45:14.478Z,10.76
2023-03-14T08:47:44.567Z,10.79
2023-03-14T08:50:16.273Z,10.86
2023-03-14T08:52:50.514Z,10.94
2023-03-14T08:55:20.411Z,11.03
2023-03-14T08:57:48.889Z,11.09
2023-03-14T09:00:18.596Z,11.08
2023-03-14T09:02:50.125Z,11.19
2023-03-14T09:05:21.534Z,11.28
2023-03-14T09:07:53.109Z,11.41
2023-03-14T09:10:21.689Z,11.52
2023-03-14T09:12:53.140Z,11.63
2023-03-14T09:15:21.637Z,11.74
2023-03-14T09:17:50.209Z,11.82
2023-03-14T09:20:24.674Z,11.91
2023-03-14T09:23:00.473Z,11.99
2023-03-14T09:25:33.302Z,12.12
2023-03-14T09:28:06.068Z,12.18
2023-03-14T09:30:38.860Z,12.28
2023-03-14T09:33:07.017Z,12.46
2023-03-14T09:35:37.039Z,12.50
2023-03-14T09:38:11.113Z,12.50
2023-03-14T09:40:39.686Z,12.68
2023-03-14T09:43:13.420Z,12.86
2023-03-14T09:45:42.103Z,13.00
2023-03-14T09:48:19.949Z,13.05
2023-03-14T09:50:54.850Z,13.02
2023-03-14T09:53:29.203Z,13.09
2023-03-14T09:55:59.239Z,13.14
2023-03-14T09:58:31.524Z,13.27
2023-03-14T10:01:03.585Z,13.34
2023-03-14T10:03:36.437Z,13.41
2023-03-14T10:06:13.522Z,13.44
2023-03-14T10:08:44.120Z,13.43
2023-03-14T10:11:17.564Z,13.64
2023-03-14T10:14:03.256Z,13.87
2023-03-14T10:16:35.547Z,14.11
2023-03-14T10:19:16.002Z,14.16
2023-03-14T10:21:51.841Z,13.95
2023-03-14T10:24:28.596Z,13.77
2023-03-14T10:27:06.656Z,13.84
2023-03-14T10:29:36.957Z,13.84
2023-03-14T10:32:12.686Z,13.90
2023-03-14T10:34:41.474Z,14.01
2023-03-14T10:37:22.559Z,14.12
2023-03-14T10:39:55.603Z,14.23
2023-03-14T10:42:37.201Z,14.35
2023-03-14T10:45:08.746Z,14.34
2023-03-14T10:47:37.062Z,14.41
2023-03-14T10:50:26.827Z,14.58
2023-03-14T10:53:02.539Z,14.70
2023-03-14T10:55:45.239Z,14.76
2023-03-14T10:58:43.824Z,14.99
2023-03-14T11:01:30.846Z,15.20
2023-03-14T11:04:14.335Z,15.30
2023-03-14T11:07:06.654Z,15.41
2023-03-14T11:09:46.196Z,15.38
2023-03-14T11:12:34.642Z,15.35
2023-03-14T11:15:26.469Z,15.23
2023-03-14T11:18:21.694Z,15.16
2023-03-14T11:21:13.790Z,15.16
2023-03-14T11:24:04.768Z,15.07
2023-03-14T11:26:54.612Z,15.12
2023-03-14T11:29:51.558Z,15.37
2023-03-14T11:32:31.126Z,15.51
2023-03-14T11:35:01.115Z,15.58
2023-03-14T11:37:35.128Z,15.48
2023-03-14T11:40:37.167Z,15.46
2023-03-14T11:43:13.959Z,15.45
2023-03-14T11:45:44.325Z,15.49
2023-03-14T11:48:13.553Z,15.59
2023-03-14T11:50:44.104Z,15.77
2023-03-14T11:53:23.371Z,16.02
2023-03-14T11:55:56.231Z,16.15
2023-03-14T11:58:32.980Z,15.88
2023-03-14T12:01:04.360Z,15.57
2023-03-14T12:03:47.520Z,15.48
2023-03-14T12:06:34.906Z,15.30
2023-03-14T12:09:05.404Z,15.25
2023-03-14T12:11:42.699Z,15.31
2023-03-14T12:14:30.065Z,15.39
2023-03-14T12:17:21.074Z,15.31
2023-03-14T12:20:01.142Z,15.29
2023-03-14T12:22:36.287Z,15.37
2023-03-14T12:25:28.602Z,15.52
2023-03-14T12:27:58.950Z,15.60
2023-03-14T12:30:44.407Z,15.50
2023-03-14T12:33:19.632Z,15.54
2023-03-14T12:35:52.859Z,15.60
2023-03-14T12:38:27.501Z,15.53
2023-03-14T12:41:37.731Z,15.43
2023-03-14T12:44:43.412Z,15.26
2023-03-14T12:47:18.329Z,15.25
2023-03-14T12:49:50.861Z,15.23
2023-03-14T12:52:23.942Z,15.21
2023-03-14T12:55:11.778Z,15.17
2023-03-14T12:57:43.854Z,15.20
2023-03-14T13:00:31.027Z,15.17
2023-03-14T13:03:26.475Z,15.28
2023-03-14T13:06:02.983Z,15.39
2023-03-14T13:08:40.878Z,15.53
2023-03-14T13:11:20.389Z,15.65
2023-03-14T13:13:50.685Z,15.60
2023-03-14T13:16:22.510Z,15.53
2023-03-14T13:19:18.312Z,15.40
2023-03-14T13:21:48.314Z,15.24
2023-03-14T13:24:23.984Z,14.94
2023-03-14T13:26:56.645Z,14.51
2023-03-14T13:29:34.565Z,14.27
2023-03-14T13:32:18.402Z,14.07
2023-03-14T13:34:48.823Z,13.85
2023-03-14T13:37:24.983Z,13.83
2023-03-14T13:39:57.824Z,13.88
2023-03-14T13:42:28.748Z,13.86
2023-03-14T13:45:01.194Z,13.85
2023-03-14T13:47:33.356Z,13.89
2023-03-14T13:50:03.673Z,13.88
2023-03-14T13:52:36.949Z,13.76
2023-03-14T13:55:14.816Z,13.57
2023-03-14T13:57:47.272Z,13.36
2023-03-14T14:00:23.501Z,13.18
2023-03-14T14:02:53.114Z,13.00
2023-03-14T14:05:22.796Z,12.90
2023-03-14T14:07:53.507Z,12.87
2023-03-14T14:10:22.451Z,12.84
2023-03-14T14:13:02.604Z,12.85
2023-03-14T14:15:36.568Z,12.84
2023-03-14T14:18:06.347Z,12.84
2023-03-14T14:20:47.834Z,12.87
2023-03-14T14:23:37.419Z,12.86
2023-03-14T14:27:40.464Z,13.09
2023-03-14T14:30:23.461Z,13.30
2023-03-14T14:32:53.290Z,13.51
2023-03-14T14:35:26.981Z,13.78
2023-03-14T14:37:55.878Z,14.02
2023-03-14T14:40:26.264Z,14.12
2023-03-14T14:42:54.837Z,14.11
2023-03-14T14:45:26.381Z,13.95
2023-03-14T14:47:56.783Z,13.72
2023-03-14T14:50:38.593Z,13.53
2023-03-14T14:53:27.368Z,13.31
2023-03-14T14:56:02.597Z,13.13
2023-03-14T14:58:35.885Z,13.03
2023-03-14T15:01:17.238Z,12.83
2023-03-14T15:03:50.447Z,12.62
2023-03-14T15:06:19.244Z,12.47
2023-03-14T15:08:49.059Z,12.28
2023-03-14T15:11:21.952Z,12.12
2023-03-14T15:13:54.131Z,12.00
2023-03-14T15:16:26.756Z,11.90
2023-03-14T15:21:49.338Z,11.65
2023-03-14T15:24:18.045Z,11.52
2023-03-14T15:26:47.484Z,11.45
2023-03-14T15:29:15.929Z,11.39
2023-03-14T15:32:04.492Z,11.33
2023-03-14T15:34:34.192Z,11.27
2023-03-14T15:37:08.263Z,11.19
2023-03-14T15:39:36.687Z,11.13
2023-03-14T15:42:04.961Z,11.04
2023-03-14T15:44:33.356Z,10.97
2023-03-14T15:47:02.433Z,10.92
2023-03-14T15:49:31.325Z,10.85
2023-03-14T15:52:00.831Z,10.77
2023-03-14T15:54:29.621Z,10.68
2023-03-14T15:56:58.309Z,10.61
2023-03-14T15:59:27.806Z,10.54
2023-03-14T16:01:55.990Z,10.47
2023-03-14T16:04:25.520Z,10.39
2023-03-14T16:06:54.278Z,10.31
2023-03-14T16:09:24.908Z,10.24
2023-03-14T16:11:55.004Z,10.19
2023-03-14T16:14:24.846Z,10.14
2023-03-14T16:16:54.361Z,10.10
2023-03-14T16:19:23.859Z,10.06
2023-03-14T16:21:52.379Z,10.01
2023-03-14T16:24:26.859Z,9.97
2023-03-14T16:26:57.085Z,9.93
2023-03-14T16:29:25.975Z,9.89
2023-03-14T16:31:56.180Z,9.84
2023-03-14T16:34:26.114Z,9.79
2023-03-14T16:36:56.132Z,9.74
2023-03-14T16:39:27.577Z,9.74
2023-03-14T16:41:59.050Z,9.72
2023-03-14T16:44:29.457Z,9.70
2023-03-14T16:46:58.756Z,9.67
2023-03-14T16:49:28.185Z,9.65
2023-03-14T16:51:57.049Z,9.64
2023-03-14T16:54:28.194Z,9.61
2023-03-14T16:56:57.597Z,9.59
2023-03-14T16:59:27.213Z,9.55
2023-03-14T17:01:56.878Z,9.53
2023-03-14T17:04:25.779Z,9.47
2023-03-14T17:06:58.588Z,9.42
2023-03-14T17:09:28.915Z,9.38
2023-03-14T17:11:59.990Z,9.38
2023-03-14T17:14:30.488Z,9.37
2023-03-14T17:16:59.094Z,9.37
2023-03-14T17:19:29.031Z,9.34
2023-03-14T17:22:21.173Z,9.32
2023-03-14T17:25:09.979Z,9.33
2023-03-14T17:27:46.101Z,9.33
2023-03-14T17:30:15.676Z,9.32
2023-03-14T17:32:47.353Z,9.30
2023-03-14T17:35:16.400Z,9.29
2023-03-14T17:37:45.225Z,9.27
2023-03-14T17:40:14.289Z,9.27
2023-03-14T17:42:43.483Z,9.28
2023-03-14T17:45:11.874Z,9.28
2023-03-14T17:47:41.268Z,9.25
2023-03-14T17:50:11.059Z,9.23
2023-03-14T17:52:40.272Z,9.23
2023-03-14T17:55:09.993Z,9.23
2023-03-14T17:57:40.434Z,9.25
2023-03-14T18:00:10.595Z,9.25
2023-03-14T18:02:41.671Z,9.25
2023-03-14T18:05:10.983Z,9.28
2023-03-14T18:07:41.008Z,9.28
2023-03-14T18:10:14.697Z,9.28
2023-03-14T18:12:46.260Z,9.27
2023-03-14T18:15:15.468Z,9.23
2023-03-14T18:17:46.405Z,9.19
2023-03-14T18:20:27.167Z,9.19
2023-03-14T18:22:56.271Z,9.19
2023-03-14T18:25:28.432Z,9.19
2023-03-14T18:27:57.120Z,9.18
2023-03-14T18:30:26.418Z,9.15
2023-03-14T18:32:55.656Z,9.10
2023-03-14T18:35:24.408Z,9.06
2023-03-14T18:37:52.888Z,9.02
2023-03-14T18:40:24.548Z,9.01
2023-03-14T18:43:05.519Z,9.01
2023-03-14T18:45:35.340Z,8.96
2023-03-14T18:48:04.633Z,8.92
2023-03-14T18:50:33.701Z,8.88
2023-03-14T18:53:05.262Z,8.81
2023-03-14T18:55:35.167Z,8.77
2023-03-14T18:58:04.000Z,8.76
2023-03-14T19:00:37.510Z,8.75
2023-03-14T19:03:27.740Z,8.72
2023-03-14T19:05:56.905Z,8.65
2023-03-14T19:08:30.345Z,8.60
2023-03-14T19:11:01.546Z,8.55
2023-03-14T19:13:32.791Z,8.51
2023-03-14T19:16:03.953Z,8.47
2023-03-14T19:18:33.923Z,8.45
2023-03-14T19:21:09.606Z,8.39
2023-03-14T19:23:40.039Z,8.34
2023-03-14T19:26:12.001Z,8.29
2023-03-14T19:28:42.215Z,8.23
2023-03-14T19:31:12.426Z,8.20
2023-03-14T19:33:45.235Z,8.20
2023-03-14T19:36:35.356Z,8.14
2023-03-14T19:39:09.323Z,8.08
2023-03-14T19:41:39.419Z,8.07
2023-03-14T19:44:08.223Z,8.03
2023-03-14T19:46:41.680Z,7.99
2023-03-14T19:49:12.163Z,7.92
2023-03-14T19:51:41.544Z,7.85
2023-03-14T19:54:11.277Z,7.82
2023-03-14T19:56:41.551Z,7.75
2023-03-14T19:59:11.415Z,7.69
2023-03-14T20:01:40.042Z,7.68
2023-03-14T20:04:16.022Z,7.66
2023-03-14T20:06:46.382Z,7.65
2023-03-14T20:09:15.066Z,7.65
2023-03-14T20:11:44.681Z,7.64
2023-03-14T20:14:16.542Z,7.62
2023-03-14T20:16:45.065Z,7.62
2023-03-14T20:19:18.427Z,7.61
2023-03-14T20:21:47.312Z,7.55
2023-03-14T20:24:15.943Z,7.54
2023-03-14T20:26:44.483Z,7.51
2023-03-14T20:29:15.738Z,7.47
2023-03-14T20:31:47.590Z,7.44
2023-03-14T20:34:16.085Z,7.42
2023-03-14T20:36:53.074Z,7.41
2023-03-14T20:39:21.845Z,7.37
2023-03-14T20:41:50.843Z,7.31
2023-03-14T20:44:19.640Z,7.27
2023-03-14T20:46:51.606Z,7.25
2023-03-14T20:49:20.496Z,7.23
2023-03-14T20:51:48.968Z,7.20
2023-03-14T20:54:21.122Z,7.14
2023-03-14T20:56:51.052Z,7.07
2023-03-14T20:59:20.059Z,7.04
2023-03-14T21:04:36.580Z,6.99
2023-03-14T21:07:07.289Z,6.98
2023-03-14T21:09:36.764Z,6.95
2023-03-14T21:12:05.999Z,6.91
2023-03-14T21:14:36.831Z,6.86
2023-03-14T21:17:07.052Z,6.82
2023-03-14T21:19:35.533Z,6.80
2023-03-14T21:22:07.089Z,6.79
2023-03-14T21:24:36.488Z,6.77
2023-03-14T21:27:06.922Z,6.76
2023-03-14T21:29:37.461Z,6.70
2023-03-14T21:32:06.369Z,6.66
2023-03-14T21:34:41.015Z,6.62
2023-03-14T21:37:17.996Z,6.58
2023-03-14T21:39:46.473Z,6.55
2023-03-14T21:42:15.162Z,6.53
2023-03-14T21:44:51.839Z,6.48
2023-03-14T21:47:23.958Z,6.44
2023-03-14T21:49:54.436Z,6.40
2023-03-14T21:52:24.970Z,6.36
2023-03-14T21:54:54.186Z,6.33
2023-03-14T21:57:29.962Z,6.31
2023-03-14T21:59:58.376Z,6.29
2023-03-14T22:02:26.730Z,6.24
2023-03-14T22:04:58.187Z,6.20
2023-03-14T22:07:26.977Z,6.16
2023-03-14T22:09:56.094Z,6.15
2023-03-14T22:12:28.238Z,6.13
2023-03-14T22:14:58.662Z,6.08
2023-03-14T22:17:27.457Z,6.03
2023-03-14T22:19:56.021Z,5.97
2023-03-14T22:22:24.929Z,5.95
2023-03-14T22:24:56.398Z,5.91
2023-03-14T22:27:24.755Z,5.87
2023-03-14T22:29:52.842Z,5.81
2023-03-14T22:32:23.279Z,5.76
2023-03-14T22:34:52.457Z,5.73
2023-03-14T22:37:23.295Z,5.69
2023-03-14T22:39:52.595Z,5.67
2023-03-14T22:42:20.968Z,5.65
2023-03-14T22:44:52.009Z,5.63
2023-03-14T22:47:20.598Z,5.59
2023-03-14T22:49:50.211Z,5.55
2023-03-14T22:52:35.145Z,5.57
2023-03-14T22:55:03.444Z,5.53
2023-03-14T22:57:31.929Z,5.50
2023-03-14T23:00:00.611Z,5.48
2023-03-14T23:02:29.211Z,5.44
2023-03-14T23:04:57.474Z,5.44
2023-03-14T23:07:25.646Z,5.43
2023-03-14T23:09:54.412Z,5.40
2023-03-14T23:12:22.820Z,5.37
2023-03-14T23:14:50.893Z,5.35
2023-03-14T23:17:19.402Z,5.34
2023-03-14T23:19:48.466Z,5.31
2023-03-14T23:22:18.388Z,5.27
2023-03-14T23:24:49.024Z,5.27
2023-03-14T23:27:17.415Z,5.25
2023-03-14T23:29:47.728Z,5.23
2023-03-14T23:32:16.225Z,5.23
2023-03-14T23:34:49.297Z,5.22
2023-03-14T23:37:18.908Z,5.21
2023-03-14T23:39:48.325Z,5.22
2023-03-14T23:42:16.532Z,5.22
2023-03-14T23:44:45.273Z,5.20
2023-03-14T23:47:13.859Z,5.16
2023-03-14T23:49:42.134Z,5.11
2023-03-14T23:52:11.537Z,5.08
2023-03-14T23:54:42.271Z,5.08
2023-03-14T23:57:10.454Z,5.07
2023-03-14T23:59:39.538Z,5.07
